Time;durP1;ratioP1;P1;durP2;ratioP2;P2;SDS_P1;SDS_P2;PMS_P1;PMS_P2;Temp;Humidity;BMP_temperature;BMP_pressure;BME280_temperature;BME280_humidity;BME280_pressure;Samples;Min_cycle;Max_cycle;Signal;HPM_P1;HPM_P2
2023/04/15 00:00:20;;;;;;;11.45;5.38;;;;;;;;;;4244402;28;20144;-58
2023/04/15 00:02:41;;;;;;;5.25;4.88;;;;;;;;;;4244901;28;20073;-59
2023/04/15 00:05:01;;;;;;;7.30;6.68;;;;;;;;;;4248292;28;20373;-58
2023/04/15 00:07:21;;;;;;;12.02;5.85;;;;;;;;;;4247525;28;20047;-58
2023/04/15 00:09:42;;;;;;;9.93;6.55;;;;;;;;;;4246087;28;20246;-59
2023/04/15 00:12:02;;;;;;;8.55;6.75;;;;;;;;;;4245596;28;20081;-59
2023/04/15 00:14:22;;;;;;;11.07;5.70;;;;;;;;;;4243925;28;20051;-59
2023/04/15 00:16:43;;;;;;;6.90;5.63;;;;;;;;;;4245409;28;20049;-58
2023/04/15 00:19:03;;;;;;;5.68;5.25;;;;;;;;;;4248606;28;20092;-59
2023/04/15 00:21:23;;;;;;;6.60;6.05;;;;;;;;;;4245753;28;20079;-59
2023/04/15 00:23:44;;;;;;;6.65;6.25;;;;;;;;;;4243600;28;20058;-59
2023/04/15 00:26:04;;;;;;;9.68;4.78;;;;;;;;;;4242890;28;20063;-59
2023/04/15 00:28:24;;;;;;;13.40;5.93;;;;;;;;;;4244019;28;20293;-59
2023/04/15 00:30:45;;;;;;;5.75;4.95;;;;;;;;;;4247526;28;20069;-58
2023/04/15 00:33:05;;;;;;;7.95;5.45;;;;;;;;;;4244669;28;20054;-58
2023/04/15 00:35:26;;;;;;;8.88;5.65;;;;;;;;;;4244090;28;20295;-58
2023/04/15 00:37:46;;;;;;;8.20;6.13;;;;;;;;;;4241658;28;20050;-58
2023/04/15 00:40:07;;;;;;;6.28;5.75;;;;;;;;;;4248275;28;20043;-58
2023/04/15 00:42:28;;;;;;;10.07;6.22;;;;;;;;;;4248171;28;20095;-59
2023/04/15 00:44:48;;;;;;;6.68;5.93;;;;;;;;;;4244397;28;20280;-59
2023/04/15 00:47:09;;;;;;;11.45;5.93;;;;;;;;;;4242564;28;20085;-58
2023/04/15 00:49:31;;;;;;;6.35;5.70;;;;;;;;;;4247874;28;20119;-59
2023/04/15 00:51:51;;;;;;;7.85;5.22;;;;;;;;;;4246988;28;20046;-58
2023/04/15 00:54:11;;;;;;;15.65;8.35;;;;;;;;;;4248355;28;20061;-59
2023/04/15 00:56:35;;;;;;;10.80;6.93;;;;;;;;;;4247053;28;20395;-58
2023/04/15 00:58:56;;;;;;;6.53;5.88;;;;;;;;;;4246951;28;20081;-58
2023/04/15 01:01:17;;;;;;;11.75;6.18;;;;;;;;;;4250296;28;20045;-59
2023/04/15 01:03:37;;;;;;;13.13;7.00;;;;;;;;;;4233232;28;20050;-58
2023/04/15 01:05:59;;;;;;;9.20;5.50;;;;;;;;;;4247861;28;20142;-59
2023/04/15 01:08:22;;;;;;;6.28;5.32;;;;;;;;;;4249203;28;20095;-59
2023/04/15 01:10:43;;;;;;;8.15;6.60;;;;;;;;;;4251462;28;20103;-58
2023/04/15 01:13:03;;;;;;;7.97;5.68;;;;;;;;;;4241023;28;20059;-59
2023/04/15 01:15:24;;;;;;;7.40;6.18;;;;;;;;;;4244127;28;20076;-59
2023/04/15 01:17:45;;;;;;;6.22;4.90;;;;;;;;;;4248159;28;20050;-59
2023/04/15 01:20:08;;;;;;;15.23;6.00;;;;;;;;;;4249056;28;20062;-59
2023/04/15 01:22:29;;;;;;;8.63;6.13;;;;;;;;;;4246515;28;20128;-59
2023/04/15 01:25:03;;;;;;;7.75;5.40;;;;;;;;;;4252673;28;20046;-58
2023/04/15 01:27:23;;;;;;;14.10;6.25;;;;;;;;;;4247001;28;20085;-59
2023/04/15 01:29:44;;;;;;;10.15;6.60;;;;;;;;;;4247960;28;20047;-59
2023/04/15 01:32:04;;;;;;;12.60;6.57;;;;;;;;;;4245786;28;20080;-59
2023/04/15 01:34:25;;;;;;;10.38;5.53;;;;;;;;;;4251494;28;20096;-59
2023/04/15 01:36:45;;;;;;;11.45;7.18;;;;;;;;;;4244134;28;20081;-59
2023/04/15 01:39:06;;;;;;;9.55;6.85;;;;;;;;;;4245518;28;20041;-59
2023/04/15 01:41:26;;;;;;;7.25;5.82;;;;;;;;;;4245601;28;20054;-59
2023/04/15 01:43:46;;;;;;;10.48;6.28;;;;;;;;;;4248562;28;20235;-59
2023/04/15 01:46:07;;;;;;;13.95;5.95;;;;;;;;;;4252248;28;20246;-59
2023/04/15 01:48:27;;;;;;;6.00;5.50;;;;;;;;;;4249151;28;20297;-59
2023/04/15 01:50:47;;;;;;;12.23;6.45;;;;;;;;;;4242620;28;20059;-60
2023/04/15 01:53:07;;;;;;;11.77;7.88;;;;;;;;;;4252374;28;20050;-59
2023/04/15 01:55:27;;;;;;;15.32;6.03;;;;;;;;;;4248850;28;20080;-59
2023/04/15 01:57:47;;;;;;;6.05;5.47;;;;;;;;;;4249999;28;20085;-59
2023/04/15 02:00:08;;;;;;;6.40;4.97;;;;;;;;;;4243614;28;20065;-59
2023/04/15 02:02:28;;;;;;;11.60;5.88;;;;;;;;;;4245626;28;20231;-59
2023/04/15 02:04:49;;;;;;;9.43;5.80;;;;;;;;;;4252479;28;20118;-59
2023/04/15 02:07:09;;;;;;;10.65;5.00;;;;;;;;;;4249001;28;20312;-59
2023/04/15 02:09:29;;;;;;;4.80;4.40;;;;;;;;;;4249991;28;20107;-59
2023/04/15 02:11:50;;;;;;;7.18;5.88;;;;;;;;;;4247974;28;20249;-59
2023/04/15 02:14:11;;;;;;;8.35;4.63;;;;;;;;;;4249009;28;20034;-59
2023/04/15 02:16:32;;;;;;;7.55;6.15;;;;;;;;;;4249814;28;20058;-59
2023/04/15 02:18:52;;;;;;;5.70;5.05;;;;;;;;;;4249934;28;20047;-59
2023/04/15 02:21:13;;;;;;;7.35;6.25;;;;;;;;;;4248242;28;20042;-59
2023/04/15 02:23:32;;;;;;;8.05;6.28;;;;;;;;;;4246687;28;20277;-59
2023/04/15 02:25:53;;;;;;;6.85;6.30;;;;;;;;;;4251443;28;20077;-59
2023/04/15 02:28:14;;;;;;;6.18;5.07;;;;;;;;;;4246910;28;20101;-59
2023/04/15 02:30:35;;;;;;;10.95;6.05;;;;;;;;;;4252587;28;20050;-59
2023/04/15 02:32:55;;;;;;;8.77;5.88;;;;;;;;;;4234837;28;20111;-59
2023/04/15 02:35:18;;;;;;;16.25;5.93;;;;;;;;;;4251717;28;20051;-60
2023/04/15 02:37:44;;;;;;;9.25;5.72;;;;;;;;;;4243160;28;20230;-59
2023/04/15 02:40:04;;;;;;;5.55;5.03;;;;;;;;;;4252157;28;20042;-59
2023/04/15 02:42:27;;;;;;;9.65;5.25;;;;;;;;;;4251131;28;20038;-59
2023/04/15 02:44:47;;;;;;;7.57;4.93;;;;;;;;;;4250240;28;20370;-59
2023/04/15 02:47:07;;;;;;;12.18;5.72;;;;;;;;;;4244459;28;20315;-59
2023/04/15 02:49:29;;;;;;;8.07;5.65;;;;;;;;;;4245651;28;20051;-59
2023/04/15 02:51:50;;;;;;;7.00;6.13;;;;;;;;;;4249613;28;20051;-59
2023/04/15 02:54:10;;;;;;;7.78;4.97;;;;;;;;;;4235071;28;20270;-59
2023/04/15 02:56:30;;;;;;;6.82;4.70;;;;;;;;;;4249591;28;20109;-59
2023/04/15 02:58:50;;;;;;;17.73;7.68;;;;;;;;;;4248617;28;20054;-59
2023/04/15 03:01:10;;;;;;;13.40;6.43;;;;;;;;;;4248588;28;20137;-59
2023/04/15 03:03:31;;;;;;;16.08;7.03;;;;;;;;;;4251933;28;20128;-59
2023/04/15 03:05:51;;;;;;;14.43;7.47;;;;;;;;;;4247154;28;20050;-59
2023/04/15 03:08:11;;;;;;;16.30;7.32;;;;;;;;;;4238950;28;20268;-59
2023/04/15 03:10:31;;;;;;;6.38;5.22;;;;;;;;;;4247597;28;20085;-59
2023/04/15 03:12:52;;;;;;;18.45;5.28;;;;;;;;;;4248569;28;20074;-59
2023/04/15 03:15:12;;;;;;;5.53;4.88;;;;;;;;;;4249090;28;20043;-59
2023/04/15 03:17:32;;;;;;;6.35;4.93;;;;;;;;;;4248139;28;20089;-59
2023/04/15 03:19:52;;;;;;;8.57;5.30;;;;;;;;;;4244423;28;20054;-59
2023/04/15 03:22:13;;;;;;;4.22;3.90;;;;;;;;;;4248717;28;20083;-59
2023/04/15 03:24:33;;;;;;;6.68;4.80;;;;;;;;;;4246431;28;20216;-60
2023/04/15 03:26:54;;;;;;;5.18;4.40;;;;;;;;;;4246805;28;20097;-60
2023/04/15 03:29:14;;;;;;;5.75;4.97;;;;;;;;;;4243971;28;20084;-59
2023/04/15 03:31:35;;;;;;;6.50;4.57;;;;;;;;;;4244699;28;20077;-59
2023/04/15 03:33:55;;;;;;;8.98;4.85;;;;;;;;;;4230398;28;20081;-60
2023/04/15 03:36:16;;;;;;;7.28;5.38;;;;;;;;;;4244148;28;20042;-60
2023/04/15 03:38:36;;;;;;;7.45;3.65;;;;;;;;;;4240573;28;20043;-60
2023/04/15 03:40:56;;;;;;;6.80;4.50;;;;;;;;;;4243469;28;20370;-62
2023/04/15 03:43:16;;;;;;;5.30;4.13;;;;;;;;;;4242781;28;20070;-62
2023/04/15 03:45:36;;;;;;;4.75;3.75;;;;;;;;;;4242834;28;20227;-63
2023/04/15 03:47:56;;;;;;;6.05;4.53;;;;;;;;;;4242479;28;20051;-64
2023/04/15 03:50:30;;;;;;;3.97;3.75;;;;;;;;;;4241768;28;20050;-65
2023/04/15 03:52:51;;;;;;;4.07;3.53;;;;;;;;;;4242022;28;20042;-65
2023/04/15 03:55:11;;;;;;;3.83;3.72;;;;;;;;;;4243330;28;20043;-65
2023/04/15 03:57:36;;;;;;;3.85;3.72;;;;;;;;;;4243065;28;20136;-65
2023/04/15 03:59:56;;;;;;;3.90;3.80;;;;;;;;;;4249535;28;20045;-65
2023/04/15 04:02:17;;;;;;;4.57;4.38;;;;;;;;;;4243300;28;20050;-65
2023/04/15 04:04:37;;;;;;;4.50;4.18;;;;;;;;;;4245882;28;20043;-65
2023/04/15 04:06:57;;;;;;;4.57;4.38;;;;;;;;;;4242371;28;20042;-65
2023/04/15 04:09:18;;;;;;;4.40;4.30;;;;;;;;;;4250482;28;20068;-65
2023/04/15 04:11:38;;;;;;;4.43;4.20;;;;;;;;;;4244074;28;20054;-65
2023/04/15 04:13:58;;;;;;;4.38;4.20;;;;;;;;;;4247547;28;20066;-65
2023/04/15 04:16:18;;;;;;;4.15;3.65;;;;;;;;;;4243249;28;20050;-65
2023/04/15 04:18:39;;;;;;;4.95;4.45;;;;;;;;;;4248691;28;20058;-64
2023/04/15 04:21:00;;;;;;;5.55;5.18;;;;;;;;;;4245588;28;20055;-64
2023/04/15 04:23:20;;;;;;;6.65;6.22;;;;;;;;;;4248203;28;20054;-64
2023/04/15 04:25:40;;;;;;;7.85;6.63;;;;;;;;;;4249811;28;20054;-65
2023/04/15 04:28:01;;;;;;;7.10;6.55;;;;;;;;;;4233689;28;20046;-65
2023/04/15 04:30:21;;;;;;;4.28;3.97;;;;;;;;;;4244976;28;20045;-65
2023/04/15 04:32:42;;;;;;;4.38;4.28;;;;;;;;;;4248072;28;20046;-65
2023/04/15 04:35:02;;;;;;;4.43;4.18;;;;;;;;;;4245937;28;20042;-65
2023/04/15 04:37:23;;;;;;;5.13;4.90;;;;;;;;;;4246785;27;20046;-65
2023/04/15 04:39:43;;;;;;;5.30;4.95;;;;;;;;;;4253071;28;20050;-65
2023/04/15 04:42:03;;;;;;;5.75;4.60;;;;;;;;;;4247364;28;20043;-65
2023/04/15 04:44:24;;;;;;;4.38;4.15;;;;;;;;;;4248878;28;20061;-64
2023/04/15 04:46:44;;;;;;;4.13;3.83;;;;;;;;;;4249449;28;20045;-64
2023/04/15 04:49:04;;;;;;;3.50;3.50;;;;;;;;;;4243017;28;20384;-64
2023/04/15 04:51:25;;;;;;;3.85;3.63;;;;;;;;;;4248476;27;20084;-65
2023/04/15 04:53:45;;;;;;;3.75;3.55;;;;;;;;;;4246796;28;20047;-65
2023/04/15 04:56:05;;;;;;;3.63;3.63;;;;;;;;;;4246376;28;20050;-65
2023/04/15 04:58:26;;;;;;;3.17;2.97;;;;;;;;;;4244831;28;20068;-65
2023/04/15 05:00:46;;;;;;;3.67;3.58;;;;;;;;;;4248218;28;20042;-64
2023/04/15 05:03:06;;;;;;;6.30;4.63;;;;;;;;;;4248113;28;20066;-64
2023/04/15 05:05:27;;;;;;;5.68;4.05;;;;;;;;;;4246926;28;20384;-64
2023/04/15 05:07:49;;;;;;;3.80;3.75;;;;;;;;;;4249297;28;20098;-64
2023/04/15 05:10:10;;;;;;;3.95;3.75;;;;;;;;;;4247741;28;20039;-64
2023/04/15 05:12:31;;;;;;;3.88;3.78;;;;;;;;;;4246980;28;20080;-64
2023/04/15 05:14:51;;;;;;;4.03;3.83;;;;;;;;;;4244482;28;20100;-64
2023/04/15 05:17:11;;;;;;;4.88;4.38;;;;;;;;;;4249603;28;20042;-64
2023/04/15 05:19:31;;;;;;;4.78;4.68;;;;;;;;;;4248617;28;20365;-64
2023/04/15 05:21:52;;;;;;;6.20;6.00;;;;;;;;;;4247381;28;20107;-64
2023/04/15 05:24:12;;;;;;;5.07;4.97;;;;;;;;;;4249176;28;20046;-64
2023/04/15 05:26:32;;;;;;;4.85;4.68;;;;;;;;;;4246794;28;20077;-65
2023/04/15 05:28:53;;;;;;;5.13;4.93;;;;;;;;;;4247144;28;20072;-65
2023/04/15 05:31:13;;;;;;;8.27;7.47;;;;;;;;;;4244918;28;20254;-65
2023/04/15 05:33:34;;;;;;;4.93;4.70;;;;;;;;;;4247725;28;20078;-65
2023/04/15 05:35:54;;;;;;;4.30;4.20;;;;;;;;;;4250791;27;20042;-65
2023/04/15 05:38:15;;;;;;;3.90;3.67;;;;;;;;;;4243427;28;20038;-65
2023/04/15 05:40:35;;;;;;;3.97;3.78;;;;;;;;;;4242216;28;20123;-65
2023/04/15 05:42:55;;;;;;;4.45;4.05;;;;;;;;;;4245672;28;20054;-65
2023/04/15 05:45:16;;;;;;;3.72;3.60;;;;;;;;;;4242609;28;20104;-65
2023/04/15 05:47:36;;;;;;;5.72;3.75;;;;;;;;;;4245012;28;20400;-64
2023/04/15 05:49:57;;;;;;;4.13;3.83;;;;;;;;;;4242815;28;20038;-64
2023/04/15 05:52:18;;;;;;;4.63;4.38;;;;;;;;;;4245366;28;20042;-64
2023/04/15 05:54:38;;;;;;;4.45;4.35;;;;;;;;;;4241689;28;20051;-63
2023/04/15 05:56:58;;;;;;;3.65;3.55;;;;;;;;;;4244983;28;20043;-63
2023/04/15 05:59:18;;;;;;;4.15;3.67;;;;;;;;;;4245358;28;20069;-63
2023/04/15 06:01:39;;;;;;;3.72;3.63;;;;;;;;;;4238973;28;20055;-63
2023/04/15 06:03:59;;;;;;;4.00;3.90;;;;;;;;;;4242698;28;20043;-63
2023/04/15 06:06:19;;;;;;;3.33;3.22;;;;;;;;;;4249255;28;20119;-63
2023/04/15 06:08:39;;;;;;;3.42;3.33;;;;;;;;;;4250214;28;20240;-62
2023/04/15 06:11:00;;;;;;;3.88;3.88;;;;;;;;;;4247446;28;20240;-62
2023/04/15 06:13:20;;;;;;;5.15;4.70;;;;;;;;;;4249926;28;20088;-63
2023/04/15 06:15:41;;;;;;;5.20;4.90;;;;;;;;;;4250735;28;20302;-62
2023/04/15 06:18:01;;;;;;;4.43;4.32;;;;;;;;;;4250768;28;20115;-63
2023/04/15 06:20:22;;;;;;;4.07;3.97;;;;;;;;;;4248692;28;20104;-63
2023/04/15 06:22:43;;;;;;;9.27;8.43;;;;;;;;;;4250232;28;20111;-62
2023/04/15 06:25:03;;;;;;;6.03;5.65;;;;;;;;;;4250369;28;20116;-64
2023/04/15 06:27:23;;;;;;;5.25;4.88;;;;;;;;;;4249151;28;20107;-62
2023/04/15 06:29:43;;;;;;;5.72;5.35;;;;;;;;;;4244651;28;20100;-63
2023/04/15 06:32:03;;;;;;;7.18;6.65;;;;;;;;;;4239064;28;20089;-63
2023/04/15 06:34:23;;;;;;;5.55;5.38;;;;;;;;;;4247730;28;20038;-63
2023/04/15 06:36:43;;;;;;;5.88;5.63;;;;;;;;;;4246389;28;20112;-63
2023/04/15 06:39:03;;;;;;;4.93;4.63;;;;;;;;;;4242691;28;20587;-63
2023/04/15 06:41:24;;;;;;;5.03;4.80;;;;;;;;;;4252733;28;20042;-63
2023/04/15 06:43:44;;;;;;;5.25;4.95;;;;;;;;;;4251748;28;20066;-63
2023/04/15 06:46:04;;;;;;;6.68;6.53;;;;;;;;;;4252343;28;20046;-63
2023/04/15 06:48:24;;;;;;;6.43;6.00;;;;;;;;;;4253104;28;20060;-63
2023/04/15 06:50:44;;;;;;;4.63;4.43;;;;;;;;;;4252093;28;20269;-63
2023/04/15 06:53:05;;;;;;;4.70;4.40;;;;;;;;;;4244191;28;20043;-63
2023/04/15 06:55:25;;;;;;;5.72;5.32;;;;;;;;;;4247465;28;20050;-63
2023/04/15 06:57:45;;;;;;;5.38;4.97;;;;;;;;;;4248221;28;20104;-63
2023/04/15 07:00:06;;;;;;;5.07;4.75;;;;;;;;;;4246206;28;20108;-63
2023/04/15 07:02:26;;;;;;;4.53;4.18;;;;;;;;;;4246771;28;20133;-63
2023/04/15 07:04:47;;;;;;;3.80;3.70;;;;;;;;;;4249971;28;20234;-63
2023/04/15 07:07:08;;;;;;;7.70;7.13;;;;;;;;;;4247304;28;20047;-63
2023/04/15 07:09:28;;;;;;;4.65;4.45;;;;;;;;;;4246590;28;20365;-63
2023/04/15 07:11:48;;;;;;;4.00;3.80;;;;;;;;;;4249194;28;20085;-63
2023/04/15 07:14:08;;;;;;;3.83;3.72;;;;;;;;;;4244125;28;20046;-64
2023/04/15 07:16:29;;;;;;;3.90;3.80;;;;;;;;;;4247420;28;20089;-63
2023/04/15 07:18:50;;;;;;;3.38;3.20;;;;;;;;;;4249996;28;20361;-64
2023/04/15 07:21:10;;;;;;;3.45;3.35;;;;;;;;;;4233179;28;20386;-64
2023/04/15 07:23:30;;;;;;;3.75;3.55;;;;;;;;;;4243561;28;20062;-63
2023/04/15 07:25:51;;;;;;;3.35;3.17;;;;;;;;;;4248606;28;20089;-63
2023/04/15 07:28:11;;;;;;;3.70;3.60;;;;;;;;;;4246244;28;20088;-63
2023/04/15 07:30:31;;;;;;;2.92;2.83;;;;;;;;;;4243466;28;20150;-63
2023/04/15 07:32:52;;;;;;;3.40;3.40;;;;;;;;;;4244313;28;20065;-63
2023/04/15 07:35:12;;;;;;;3.33;3.22;;;;;;;;;;4247633;28;20046;-63
2023/04/15 07:37:32;;;;;;;3.40;3.20;;;;;;;;;;4244958;28;20115;-63
2023/04/15 07:39:53;;;;;;;3.53;3.42;;;;;;;;;;4241625;28;20078;-63
2023/04/15 07:42:14;;;;;;;2.80;2.67;;;;;;;;;;4244724;28;20349;-63
2023/04/15 07:44:34;;;;;;;3.30;3.20;;;;;;;;;;4245350;28;20110;-63
2023/04/15 07:46:55;;;;;;;2.80;2.70;;;;;;;;;;4244807;28;20077;-63
2023/04/15 07:49:15;;;;;;;2.97;2.88;;;;;;;;;;4242578;28;20042;-63
2023/04/15 07:51:36;;;;;;;3.17;3.08;;;;;;;;;;4243676;28;20081;-63
2023/04/15 07:53:56;;;;;;;3.63;3.38;;;;;;;;;;4243495;28;20107;-63
2023/04/15 07:56:16;;;;;;;3.75;3.45;;;;;;;;;;4242858;28;20047;-63
2023/04/15 07:58:37;;;;;;;3.40;3.13;;;;;;;;;;4242712;28;20055;-63
2023/04/15 08:00:57;;;;;;;3.88;3.78;;;;;;;;;;4247756;28;20889;-63
2023/04/15 08:03:17;;;;;;;2.28;2.17;;;;;;;;;;4242097;28;20042;-63
2023/04/15 08:05:38;;;;;;;3.33;3.22;;;;;;;;;;4242150;28;20093;-63
2023/04/15 08:07:59;;;;;;;3.40;3.30;;;;;;;;;;4251065;28;20112;-63
2023/04/15 08:10:19;;;;;;;2.60;2.50;;;;;;;;;;4248198;28;20400;-64
2023/04/15 08:12:40;;;;;;;3.25;3.05;;;;;;;;;;4253428;28;20054;-64
2023/04/15 08:15:01;;;;;;;3.78;3.67;;;;;;;;;;4245476;28;20042;-64
2023/04/15 08:17:21;;;;;;;3.00;2.90;;;;;;;;;;4249897;28;20141;-64
2023/04/15 08:19:41;;;;;;;60.15;36.95;;;;;;;;;;4242722;28;20070;-64
2023/04/15 08:22:02;;;;;;;14.68;10.13;;;;;;;;;;4248081;28;20314;-64
2023/04/15 08:24:22;;;;;;;4.60;4.35;;;;;;;;;;4248729;28;20070;-64
2023/04/15 08:26:43;;;;;;;2.83;2.67;;;;;;;;;;4245857;28;20050;-64
2023/04/15 08:29:03;;;;;;;3.00;2.90;;;;;;;;;;4240908;28;20366;-64
2023/04/15 08:31:26;;;;;;;4.45;4.05;;;;;;;;;;4250024;28;20072;-64
2023/04/15 08:33:46;;;;;;;14.70;13.68;;;;;;;;;;4248363;28;20099;-64
2023/04/15 08:36:07;;;;;;;5.13;5.00;;;;;;;;;;4250691;28;20268;-64
2023/04/15 08:38:27;;;;;;;3.72;3.63;;;;;;;;;;4245940;28;20138;-64
2023/04/15 08:40:48;;;;;;;6.45;6.15;;;;;;;;;;4241610;28;20062;-64
2023/04/15 08:43:10;;;;;;;13.30;12.05;;;;;;;;;;4250216;28;20062;-64
2023/04/15 08:45:31;;;;;;;11.85;11.35;;;;;;;;;;4251184;28;20038;-64
2023/04/15 08:47:55;;;;;;;4.10;3.90;;;;;;;;;;4245420;28;20250;-64
2023/04/15 08:50:16;;;;;;;3.65;3.55;;;;;;;;;;4244055;28;20062;-64
2023/04/15 08:52:36;;;;;;;4.93;4.82;;;;;;;;;;4239624;28;20128;-64
2023/04/15 08:54:57;;;;;;;4.40;4.20;;;;;;;;;;4247102;28;20045;-64
2023/04/15 08:57:18;;;;;;;6.55;5.97;;;;;;;;;;4248764;28;20061;-64
2023/04/15 08:59:39;;;;;;;5.80;5.53;;;;;;;;;;4244557;28;20353;-64
2023/04/15 09:01:59;;;;;;;3.33;3.22;;;;;;;;;;4249839;28;20050;-64
2023/04/15 09:04:20;;;;;;;2.95;2.83;;;;;;;;;;4246288;28;20053;-64
2023/04/15 09:06:41;;;;;;;3.22;3.05;;;;;;;;;;4249853;28;20230;-64
2023/04/15 09:09:01;;;;;;;4.70;3.53;;;;;;;;;;4244920;28;20380;-64
2023/04/15 09:11:21;;;;;;;8.88;6.90;;;;;;;;;;4249887;28;20042;-64
2023/04/15 09:13:42;;;;;;;4.38;3.97;;;;;;;;;;4246361;28;20078;-63
2023/04/15 09:16:03;;;;;;;3.15;2.95;;;;;;;;;;4241839;28;20046;-63
2023/04/15 09:18:41;;;;;;;2.60;2.50;;;;;;;;;;4243316;28;20088;-63
2023/04/15 09:21:10;;;;;;;3.17;3.08;;;;;;;;;;4244344;28;20076;-63
2023/04/15 09:23:30;;;;;;;2.80;2.70;;;;;;;;;;4247382;28;20050;-63
2023/04/15 09:25:50;;;;;;;2.92;2.83;;;;;;;;;;4243866;28;20076;-63
2023/04/15 09:28:11;;;;;;;2.90;2.90;;;;;;;;;;4249286;28;20365;-63
2023/04/15 09:30:31;;;;;;;2.80;2.80;;;;;;;;;;4242985;28;20050;-62
2023/04/15 09:32:58;;;;;;;2.80;2.70;;;;;;;;;;4248484;28;20046;-62
2023/04/15 09:35:19;;;;;;;3.42;3.35;;;;;;;;;;4249782;28;20273;-62
2023/04/15 09:37:40;;;;;;;3.15;2.95;;;;;;;;;;4249992;28;20042;-62
2023/04/15 09:40:00;;;;;;;3.13;2.92;;;;;;;;;;4249183;28;20061;-61
2023/04/15 09:42:24;;;;;;;3.13;2.63;;;;;;;;;;4246183;28;20182;-61
2023/04/15 09:44:44;;;;;;;3.38;3.08;;;;;;;;;;4250601;28;20042;-61
2023/04/15 09:47:05;;;;;;;3.83;3.72;;;;;;;;;;4247344;28;20057;-61
2023/04/15 09:49:26;;;;;;;2.97;2.78;;;;;;;;;;4249282;28;20046;-61
2023/04/15 09:51:48;;;;;;;2.75;2.58;;;;;;;;;;4247079;28;20050;-61
2023/04/15 09:54:24;;;;;;;2.63;2.40;;;;;;;;;;4250653;28;20062;-60
2023/04/15 09:56:45;;;;;;;2.88;2.67;;;;;;;;;;4247557;28;20043;-61
2023/04/15 09:59:05;;;;;;;3.85;3.65;;;;;;;;;;4248649;28;20038;-61
2023/04/15 10:01:25;;;;;;;2.20;2.20;;;;;;;;;;4246820;28;20092;-61
2023/04/15 10:03:46;;;;;;;2.22;2.22;;;;;;;;;;4250770;28;20050;-60
2023/04/15 10:06:06;;;;;;;2.33;2.33;;;;;;;;;;4243673;28;20046;-61
2023/04/15 10:08:31;;;;;;;2.70;2.50;;;;;;;;;;4249693;28;20049;-62
2023/04/15 10:10:51;;;;;;;1.92;1.92;;;;;;;;;;4245092;28;20144;-63
2023/04/15 10:13:22;;;;;;;2.40;2.28;;;;;;;;;;4248294;28;20046;-62
2023/04/15 10:15:44;;;;;;;2.95;2.90;;;;;;;;;;4244874;28;20039;-62
2023/04/15 10:18:07;;;;;;;2.70;2.47;;;;;;;;;;4249272;28;20046;-62
2023/04/15 10:20:28;;;;;;;;;;;;;;;;;;4244800;28;20042;-62
2023/04/15 10:22:48;;;;;;;2.72;2.50;;;;;;;;;;4248924;28;19973;-62
2023/04/15 10:25:08;;;;;;;2.13;2.03;;;;;;;;;;4246770;28;20051;-62
2023/04/15 10:27:29;;;;;;;2.03;2.03;;;;;;;;;;4249296;28;20111;-62
2023/04/15 10:29:50;;;;;;;1.90;1.80;;;;;;;;;;4252476;28;20081;-62
2023/04/15 10:32:11;;;;;;;2.58;2.47;;;;;;;;;;4249918;28;20134;-62
2023/04/15 10:34:31;;;;;;;2.35;2.25;;;;;;;;;;4251899;28;20042;-62
2023/04/15 10:36:56;;;;;;;1.90;1.77;;;;;;;;;;4249631;28;20067;-62
2023/04/15 10:39:36;;;;;;;2.88;2.33;;;;;;;;;;4246564;28;20137;-62
2023/04/15 10:42:15;;;;;;;1.40;1.40;;;;;;;;;;4243749;28;20069;-62
2023/04/15 10:44:56;;;;;;;2.15;2.05;;;;;;;;;;4244753;28;20042;-62
2023/04/15 10:47:18;;;;;;;3.45;3.30;;;;;;;;;;4250915;28;20692;-62
2023/04/15 10:50:05;;;;;;;1.60;1.60;;;;;;;;;;4246778;27;20051;-62
2023/04/15 10:52:26;;;;;;;9.68;2.88;;;;;;;;;;4244403;28;20051;-62
2023/04/15 10:54:47;;;;;;;1.38;1.38;;;;;;;;;;4244268;28;20050;-62
2023/04/15 10:57:09;;;;;;;2.05;1.63;;;;;;;;;;4246095;28;20378;-62
2023/04/15 10:59:30;;;;;;;2.05;1.55;;;;;;;;;;4246477;28;20038;-62
2023/04/15 11:01:58;;;;;;;1.15;1.15;;;;;;;;;;4244666;28;20078;-62
2023/04/15 11:04:38;;;;;;;1.80;1.70;;;;;;;;;;4245981;28;20042;-62
2023/04/15 11:07:07;;;;;;;2.38;1.80;;;;;;;;;;4251506;28;20042;-62
2023/04/15 11:09:32;;;;;;;1.92;1.83;;;;;;;;;;4246229;28;20093;-62
2023/04/15 11:12:08;;;;;;;2.42;1.92;;;;;;;;;;4244212;28;20039;-62
2023/04/15 11:14:28;;;;;;;2.45;2.35;;;;;;;;;;4250201;28;20391;-62
2023/04/15 11:16:49;;;;;;;1.48;1.48;;;;;;;;;;4249112;28;20123;-61
2023/04/15 11:19:09;;;;;;;1.40;1.30;;;;;;;;;;4247078;28;20064;-62
2023/04/15 11:21:30;;;;;;;1.38;1.38;;;;;;;;;;4244018;28;20097;-62
2023/04/15 11:23:50;;;;;;;4.68;4.22;;;;;;;;;;4249043;28;20145;-61
2023/04/15 11:26:11;;;;;;;2.20;2.10;;;;;;;;;;4246728;28;20099;-61
2023/04/15 11:28:31;;;;;;;1.80;1.70;;;;;;;;;;4248094;28;20203;-61
2023/04/15 11:30:53;;;;;;;2.47;2.28;;;;;;;;;;4252960;28;20084;-61
2023/04/15 11:33:13;;;;;;;2.05;1.75;;;;;;;;;;4248895;28;20159;-61
2023/04/15 11:35:34;;;;;;;1.45;1.45;;;;;;;;;;4248265;27;20042;-61
2023/04/15 11:37:54;;;;;;;2.42;1.65;;;;;;;;;;4247384;28;20058;-61
2023/04/15 11:40:16;;;;;;;1.20;1.20;;;;;;;;;;4245517;28;20219;-61
2023/04/15 11:42:36;;;;;;;1.75;1.65;;;;;;;;;;4246550;28;20055;-61
2023/04/15 11:45:13;;;;;;;1.52;1.42;;;;;;;;;;4245722;28;20372;-62
2023/04/15 11:47:35;;;;;;;1.45;1.45;;;;;;;;;;4248683;28;20050;-61
2023/04/15 11:49:56;;;;;;;2.83;1.50;;;;;;;;;;4247027;28;20070;-61
2023/04/15 11:52:16;;;;;;;2.88;1.63;;;;;;;;;;4244279;28;20111;-61
2023/04/15 11:54:37;;;;;;;1.85;1.67;;;;;;;;;;4246666;28;20049;-61
2023/04/15 11:56:59;;;;;;;1.60;1.50;;;;;;;;;;4246174;28;20310;-61
2023/04/15 11:59:19;;;;;;;1.40;1.30;;;;;;;;;;4243330;28;20095;-61
2023/04/15 12:01:42;;;;;;;4.13;1.65;;;;;;;;;;4243783;28;20054;-61
2023/04/15 12:04:10;;;;;;;1.48;1.40;;;;;;;;;;4246118;28;20364;-61
2023/04/15 12:06:33;;;;;;;3.20;1.33;;;;;;;;;;4243368;28;20239;-61
2023/04/15 12:08:54;;;;;;;1.50;1.40;;;;;;;;;;4243848;28;20046;-61
2023/04/15 12:11:15;;;;;;;1.15;1.15;;;;;;;;;;4243458;28;20046;-61
2023/04/15 12:13:35;;;;;;;2.08;1.13;;;;;;;;;;4245459;28;20047;-61
2023/04/15 12:15:56;;;;;;;1.00;1.00;;;;;;;;;;4242077;28;20270;-61
2023/04/15 12:18:17;;;;;;;1.23;1.13;;;;;;;;;;4242448;28;20405;-61
2023/04/15 12:20:44;;;;;;;1.38;1.35;;;;;;;;;;4245456;28;20041;-61
2023/04/15 12:23:07;;;;;;;1.55;1.20;;;;;;;;;;4244500;28;20103;-61
2023/04/15 12:25:34;;;;;;;2.50;1.20;;;;;;;;;;4250076;28;20053;-61
2023/04/15 12:27:55;;;;;;;1.30;1.17;;;;;;;;;;4251265;28;20043;-61
2023/04/15 12:30:15;;;;;;;1.60;1.52;;;;;;;;;;4248163;28;20113;-60
2023/04/15 12:32:36;;;;;;;2.10;1.20;;;;;;;;;;4251026;28;20230;-61
2023/04/15 12:34:57;;;;;;;1.45;1.20;;;;;;;;;;4253248;28;20042;-61
2023/04/15 12:37:17;;;;;;;1.65;1.10;;;;;;;;;;4251112;27;20231;-61
2023/04/15 12:39:39;;;;;;;3.22;1.65;;;;;;;;;;4252773;28;20034;-61
2023/04/15 12:42:00;;;;;;;1.57;1.47;;;;;;;;;;4244800;28;20084;-61
2023/04/15 12:44:21;;;;;;;1.20;1.20;;;;;;;;;;4246083;28;20288;-61
2023/04/15 12:46:42;;;;;;;1.30;1.20;;;;;;;;;;4245834;28;20050;-61
2023/04/15 12:49:02;;;;;;;1.45;1.10;;;;;;;;;;4245049;28;20130;-61
2023/04/15 12:51:22;;;;;;;1.30;1.30;;;;;;;;;;4245547;28;20051;-61
2023/04/15 12:53:43;;;;;;;1.40;1.30;;;;;;;;;;4246855;28;20042;-61
2023/04/15 12:56:03;;;;;;;1.10;1.10;;;;;;;;;;4247954;28;20050;-61
2023/04/15 12:58:23;;;;;;;1.20;1.20;;;;;;;;;;4243306;28;20050;-61
2023/04/15 13:00:43;;;;;;;1.20;1.20;;;;;;;;;;4245333;28;20089;-61
2023/04/15 13:03:04;;;;;;;1.20;1.20;;;;;;;;;;4244792;28;20042;-61
2023/04/15 13:05:26;;;;;;;1.40;1.30;;;;;;;;;;4248384;28;20197;-61
2023/04/15 13:07:46;;;;;;;1.35;1.35;;;;;;;;;;4244508;28;20122;-61
2023/04/15 13:10:07;;;;;;;1.83;1.73;;;;;;;;;;4243627;28;20223;-61
2023/04/15 13:12:27;;;;;;;2.67;1.20;;;;;;;;;;4245369;27;20075;-61
2023/04/15 13:14:48;;;;;;;2.25;1.92;;;;;;;;;;4249634;28;20120;-61
2023/04/15 13:17:09;;;;;;;1.30;1.30;;;;;;;;;;4244437;28;20102;-61
2023/04/15 13:19:29;;;;;;;1.30;1.30;;;;;;;;;;4240502;28;20073;-61
2023/04/15 13:21:49;;;;;;;1.45;1.45;;;;;;;;;;4241614;28;20127;-61
2023/04/15 13:24:09;;;;;;;1.25;1.20;;;;;;;;;;4245040;28;20243;-62
2023/04/15 13:26:30;;;;;;;1.33;1.25;;;;;;;;;;4246324;28;20085;-61
2023/04/15 13:28:50;;;;;;;1.80;1.45;;;;;;;;;;4243151;28;20076;-61
2023/04/15 13:31:10;;;;;;;1.20;1.10;;;;;;;;;;4242418;28;20107;-61
2023/04/15 13:33:30;;;;;;;1.20;1.20;;;;;;;;;;4249922;28;20065;-61
2023/04/15 13:35:51;;;;;;;1.77;1.67;;;;;;;;;;4248252;27;20079;-61
2023/04/15 13:38:11;;;;;;;1.20;1.10;;;;;;;;;;4247179;28;20050;-61
2023/04/15 13:40:31;;;;;;;1.60;1.27;;;;;;;;;;4243120;28;20042;-62
2023/04/15 13:42:52;;;;;;;1.30;1.20;;;;;;;;;;4232554;28;20115;-61
2023/04/15 13:45:12;;;;;;;1.30;1.30;;;;;;;;;;4246692;28;20046;-61
2023/04/15 13:47:32;;;;;;;1.40;1.10;;;;;;;;;;4246446;28;20072;-61
2023/04/15 13:49:55;;;;;;;3.33;1.30;;;;;;;;;;4247021;28;20243;-61
2023/04/15 13:52:15;;;;;;;1.13;1.13;;;;;;;;;;4246446;28;20043;-61
2023/04/15 13:54:35;;;;;;;2.40;1.20;;;;;;;;;;4246383;28;20051;-61
2023/04/15 13:56:58;;;;;;;3.50;1.20;;;;;;;;;;4239029;28;20235;-61
2023/04/15 13:59:18;;;;;;;1.35;1.10;;;;;;;;;;4244964;28;20365;-61
2023/04/15 14:01:40;;;;;;;3.03;1.38;;;;;;;;;;4246249;28;20370;-61
2023/04/15 14:04:00;;;;;;;1.23;1.10;;;;;;;;;;4246840;28;20037;-61